Time;durP1;ratioP1;P1;durP2;ratioP2;P2;SDS_P1;SDS_P2;PMS_P1;PMS_P2;Temp;Humidity;BMP_temperature;BMP_pressure;BME280_temperature;BME280_humidity;BME280_pressure;Samples;Min_cycle;Max_cycle;Signal;HPM_P1;HPM_P2
2021/09/23 00:02:14;;;;;;;40.40;31.17;;;13.60;99.90;;;;;;6200754;23;20261;-79
2021/09/23 00:04:41;;;;;;;38.35;31.25;;;13.50;99.90;;;;;;6199689;23;20174;-79
2021/09/23 00:07:09;;;;;;;45.42;32.33;;;13.50;99.90;;;;;;6199727;23;20182;-80
2021/09/23 00:09:36;;;;;;;42.40;34.47;;;13.50;99.90;;;;;;6200195;23;20206;-80
2021/09/23 00:12:04;;;;;;;41.33;32.17;;;13.40;99.90;;;;;;6198589;23;20182;-81
2021/09/23 00:14:31;;;;;;;41.80;34.13;;;13.40;99.90;;;;;;6198671;23;20175;-79
2021/09/23 00:16:58;;;;;;;40.40;32.67;;;13.40;99.90;;;;;;6198743;23;20179;-79
2021/09/23 00:19:27;;;;;;;41.20;28.15;;;13.40;99.90;;;;;;6204702;23;20681;-80
2021/09/23 00:21:54;;;;;;;42.60;33.58;;;13.30;99.90;;;;;;6200296;23;20171;-79
2021/09/23 00:24:21;;;;;;;51.72;32.33;;;13.30;99.90;;;;;;6202102;23;20187;-81
2021/09/23 00:26:48;;;;;;;38.83;32.05;;;13.30;99.90;;;;;;6200926;23;20186;-78
2021/09/23 00:29:15;;;;;;;43.75;31.85;;;13.20;99.90;;;;;;6201935;23;20225;-81
2021/09/23 00:31:42;;;;;;;46.55;31.02;;;13.20;99.90;;;;;;6201044;23;20627;-79
2021/09/23 00:34:10;;;;;;;40.88;32.92;;;13.10;99.90;;;;;;6200692;23;20174;-81
2021/09/23 00:36:38;;;;;;;40.67;31.88;;;13.10;99.90;;;;;;6200913;23;20182;-79
2021/09/23 00:39:05;;;;;;;44.40;29.95;;;13.10;99.90;;;;;;6201416;23;20512;-80
2021/09/23 00:41:32;;;;;;;40.55;28.20;;;13.10;99.90;;;;;;6199558;23;20192;-80
2021/09/23 00:44:13;;;;;;;41.03;32.25;;;13.20;99.90;;;;;;6199727;23;20687;-80
2021/09/23 00:46:40;;;;;;;43.92;31.85;;;13.10;99.90;;;;;;6197719;23;20158;-80
2021/09/23 00:49:07;;;;;;;43.03;31.65;;;13.10;99.90;;;;;;6209142;23;20232;-78
2021/09/23 00:51:35;;;;;;;40.90;32.22;;;13.00;99.90;;;;;;6213756;23;20218;-79
2021/09/23 00:54:04;;;;;;;43.55;33.00;;;13.00;99.90;;;;;;6214576;23;20169;-78
2021/09/23 00:56:46;;;;;;;36.88;30.73;;;12.90;99.90;;;;;;6214439;23;20179;-78
2021/09/23 00:59:13;;;;;;;41.95;33.17;;;12.90;99.90;;;;;;6215315;23;20236;-77
2021/09/23 01:01:45;;;;;;;39.17;30.33;;;12.90;99.90;;;;;;6207833;23;20171;-80
2021/09/23 01:04:12;;;;;;;40.47;29.83;;;12.80;99.90;;;;;;6202300;23;20195;-80
2021/09/23 01:06:39;;;;;;;43.95;32.22;;;12.90;99.90;;;;;;6202309;23;20192;-81
2021/09/23 01:09:08;;;;;;;44.10;33.17;;;12.90;99.90;;;;;;6202941;23;20236;-81
2021/09/23 01:11:35;;;;;;;40.00;32.22;;;12.90;99.90;;;;;;6201336;23;20196;-80
2021/09/23 01:14:02;;;;;;;45.92;33.25;;;12.80;99.90;;;;;;6202822;23;20553;-80
2021/09/23 01:16:29;;;;;;;43.15;31.38;;;12.80;99.90;;;;;;6201124;23;20181;-81
2021/09/23 01:18:56;;;;;;;44.33;34.58;;;12.80;99.90;;;;;;6202363;23;20207;-80
2021/09/23 01:21:24;;;;;;;39.88;33.35;;;12.80;99.90;;;;;;6201342;23;20211;-80
2021/09/23 01:23:52;;;;;;;48.63;31.10;;;12.80;99.90;;;;;;6202541;23;20195;-82
2021/09/23 01:26:26;;;;;;;37.85;31.08;;;12.90;99.90;;;;;;6204223;23;20183;-80
2021/09/23 01:28:53;;;;;;;48.75;35.92;;;12.80;99.90;;;;;;6210681;23;20342;-81
2021/09/23 01:31:20;;;;;;;42.75;35.00;;;12.70;99.90;;;;;;6215025;23;20185;-80
2021/09/23 01:33:47;;;;;;;52.60;34.38;;;12.70;99.90;;;;;;6214268;23;20180;-79
2021/09/23 01:36:15;;;;;;;47.13;35.25;;;12.60;99.90;;;;;;6210245;23;20186;-80
2021/09/23 01:38:44;;;;;;;45.40;33.42;;;12.60;99.90;;;;;;6203418;23;20217;-80
2021/09/23 01:41:12;;;;;;;50.88;36.40;;;12.60;99.90;;;;;;6200222;23;20183;-80
2021/09/23 01:43:39;;;;;;;45.33;31.65;;;12.50;99.90;;;;;;6199780;23;20239;-80
2021/09/23 01:46:06;;;;;;;50.65;34.72;;;12.60;99.90;;;;;;6202127;23;20203;-79
2021/09/23 01:48:33;;;;;;;46.63;35.00;;;12.60;99.90;;;;;;6200699;23;20207;-80
2021/09/23 01:51:00;;;;;;;53.38;37.10;;;12.60;99.90;;;;;;6200546;23;20174;-80
2021/09/23 01:53:28;;;;;;;40.80;32.13;;;12.60;99.90;;;;;;6199993;23;20185;-81
2021/09/23 01:55:56;;;;;;;48.45;36.55;;;12.60;99.90;;;;;;6198757;23;20231;-81
2021/09/23 01:58:23;;;;;;;55.17;38.35;;;12.50;99.90;;;;;;6199491;23;20254;-81
2021/09/23 02:00:50;;;;;;;51.17;37.17;;;12.50;99.90;;;;;;6200360;23;20547;-81
2021/09/23 02:03:17;;;;;;;52.08;39.13;;;12.50;99.90;;;;;;6209245;23;20186;-78
2021/09/23 02:05:44;;;;;;;45.35;35.10;;;12.50;99.90;;;;;;6212884;23;20248;-78
2021/09/23 02:08:11;;;;;;;46.35;36.95;;;12.40;99.90;;;;;;6213738;23;20208;-78
2021/09/23 02:10:39;;;;;;;51.67;37.78;;;12.40;99.90;;;;;;6213575;23;20227;-78
2021/09/23 02:13:07;;;;;;;48.70;37.40;;;12.40;99.90;;;;;;6213450;23;20160;-77
2021/09/23 02:15:35;;;;;;;58.67;37.17;;;12.40;99.90;;;;;;6206950;23;20183;-77
2021/09/23 02:18:02;;;;;;;48.17;36.22;;;12.40;99.90;;;;;;6209925;23;20192;-76
2021/09/23 02:20:29;;;;;;;58.42;37.28;;;12.40;99.90;;;;;;6213777;23;20202;-78
2021/09/23 02:22:56;;;;;;;50.63;37.63;;;12.40;99.90;;;;;;6213296;23;20182;-77
2021/09/23 02:25:23;;;;;;;52.85;36.42;;;12.40;99.90;;;;;;6208847;23;20254;-78
2021/09/23 02:27:50;;;;;;;46.20;34.42;;;12.50;99.90;;;;;;6204427;23;20175;-78
2021/09/23 02:30:19;;;;;;;48.70;36.35;;;12.40;99.90;;;;;;6211825;23;20164;-77
2021/09/23 02:32:46;;;;;;;49.33;37.45;;;12.40;99.90;;;;;;6214537;23;20172;-78
2021/09/23 02:35:13;;;;;;;52.00;38.88;;;12.40;99.90;;;;;;6205499;23;20213;-79
2021/09/23 02:37:40;;;;;;;53.40;38.58;;;12.40;99.90;;;;;;6200373;23;20184;-80
2021/09/23 02:40:09;;;;;;;49.55;36.90;;;12.30;99.90;;;;;;6200979;23;20202;-78
2021/09/23 02:42:37;;;;;;;54.55;36.15;;;12.30;99.90;;;;;;6200872;23;20178;-79
2021/09/23 02:45:05;;;;;;;48.95;36.97;;;12.30;99.90;;;;;;6200528;23;20177;-79
2021/09/23 02:47:33;;;;;;;52.00;37.80;;;12.30;99.90;;;;;;6198308;23;20181;-81
2021/09/23 02:50:00;;;;;;;50.83;38.05;;;12.30;99.90;;;;;;6200892;23;20193;-81
2021/09/23 02:52:27;;;;;;;45.00;34.50;;;12.30;99.90;;;;;;6200545;23;20216;-79
2021/09/23 02:54:55;;;;;;;49.97;34.80;;;12.30;99.90;;;;;;6198482;23;20188;-79
2021/09/23 02:57:22;;;;;;;54.03;39.47;;;12.30;99.90;;;;;;6199926;23;20183;-80
2021/09/23 02:59:49;;;;;;;55.08;36.72;;;12.40;99.90;;;;;;6199668;23;20186;-79
2021/09/23 03:02:16;;;;;;;60.40;36.75;;;12.40;99.90;;;;;;6199924;23;20181;-79
2021/09/23 03:04:45;;;;;;;51.50;34.28;;;12.40;99.90;;;;;;6200212;23;20203;-78
2021/09/23 03:07:12;;;;;;;47.50;34.30;;;12.40;99.90;;;;;;6198310;23;20258;-81
2021/09/23 03:09:39;;;;;;;50.60;35.75;;;12.40;99.90;;;;;;6200653;23;20198;-79
2021/09/23 03:12:07;;;;;;;46.17;35.13;;;12.40;99.90;;;;;;6200131;23;20160;-79
2021/09/23 03:14:34;;;;;;;51.08;36.60;;;12.40;99.90;;;;;;6199653;23;20177;-79
2021/09/23 03:17:02;;;;;;;50.20;35.05;;;12.40;99.90;;;;;;6200107;23;20166;-79
2021/09/23 03:19:29;;;;;;;45.60;30.85;;;12.40;99.90;;;;;;6200477;23;20301;-80
2021/09/23 03:21:57;;;;;;;48.25;33.90;;;12.40;99.90;;;;;;6200399;23;20186;-81
2021/09/23 03:24:24;;;;;;;49.88;35.05;;;12.50;99.90;;;;;;6200143;23;20194;-81
2021/09/23 03:26:52;;;;;;;54.67;35.95;;;12.50;99.90;;;;;;6200028;23;20220;-79
2021/09/23 03:29:19;;;;;;;40.70;31.75;;;12.50;99.90;;;;;;6199982;23;20217;-79
2021/09/23 03:31:46;;;;;;;42.83;30.70;;;12.50;99.90;;;;;;6199517;23;20261;-81
2021/09/23 03:34:13;;;;;;;44.85;32.63;;;12.60;99.90;;;;;;6198618;23;20182;-81
2021/09/23 03:36:40;;;;;;;38.83;29.77;;;12.60;99.90;;;;;;6199606;23;20654;-78
2021/09/23 03:39:09;;;;;;;49.50;34.50;;;12.60;99.90;;;;;;6199478;23;20518;-79
2021/09/23 03:41:36;;;;;;;45.50;30.65;;;12.60;99.90;;;;;;6198870;23;20234;-80
2021/09/23 03:44:04;;;;;;;38.95;30.58;;;12.60;99.90;;;;;;6199162;23;20269;-79
2021/09/23 03:46:32;;;;;;;50.45;33.28;;;12.70;99.90;;;;;;6199507;23;20183;-80
2021/09/23 03:48:59;;;;;;;39.90;28.83;;;12.70;99.90;;;;;;6200695;23;20230;-81
2021/09/23 03:51:27;;;;;;;39.22;30.73;;;12.60;99.90;;;;;;6201407;23;20177;-79
2021/09/23 03:53:54;;;;;;;43.25;29.48;;;12.70;99.90;;;;;;6201052;23;20193;-82
2021/09/23 03:56:22;;;;;;;41.42;30.65;;;12.70;99.90;;;;;;6200980;23;20181;-81
2021/09/23 03:58:49;;;;;;;45.88;31.67;;;12.70;99.90;;;;;;6201072;23;20203;-81
2021/09/23 04:01:17;;;;;;;40.92;30.35;;;12.70;99.90;;;;;;6200651;23;20182;-81
2021/09/23 04:03:45;;;;;;;41.25;31.05;;;12.80;99.90;;;;;;6200591;23;20197;-80
2021/09/23 04:06:12;;;;;;;43.55;32.08;;;12.80;99.90;;;;;;6202734;23;20235;-80
2021/09/23 04:08:39;;;;;;;43.10;28.85;;;12.80;99.90;;;;;;6201249;23;20208;-80
2021/09/23 04:11:07;;;;;;;39.33;29.45;;;12.80;99.90;;;;;;6202619;23;20676;-80
2021/09/23 04:13:35;;;;;;;43.70;29.65;;;12.90;99.90;;;;;;6201881;23;20178;-81
2021/09/23 04:16:02;;;;;;;39.38;28.55;;;12.90;99.90;;;;;;6202922;23;20185;-79
2021/09/23 04:18:30;;;;;;;38.53;29.27;;;12.90;99.90;;;;;;6203025;23;20214;-80
2021/09/23 04:20:57;;;;;;;42.95;30.48;;;12.90;99.90;;;;;;6201689;23;20213;-81
2021/09/23 04:23:24;;;;;;;46.47;30.60;;;12.90;99.90;;;;;;6201589;23;20205;-81
2021/09/23 04:25:51;;;;;;;37.25;28.42;;;12.90;99.90;;;;;;6202408;23;20183;-80
2021/09/23 04:28:18;;;;;;;41.80;29.08;;;12.90;99.90;;;;;;6206130;23;20201;-81
2021/09/23 04:30:47;;;;;;;41.10;31.00;;;12.90;99.90;;;;;;6203065;23;20166;-81
2021/09/23 04:33:14;;;;;;;44.92;30.08;;;13.00;99.90;;;;;;6203524;23;20196;-81
2021/09/23 04:35:41;;;;;;;40.22;27.65;;;13.00;99.90;;;;;;6207404;23;20181;-81
2021/09/23 04:38:08;;;;;;;45.53;27.92;;;13.10;99.90;;;;;;6203185;23;20643;-82
2021/09/23 04:40:35;;;;;;;42.45;29.10;;;13.20;99.90;;;;;;6209415;23;20167;-79
2021/09/23 04:43:05;;;;;;;38.10;27.20;;;13.20;99.90;;;;;;6212569;23;20167;-81
2021/09/23 04:45:32;;;;;;;38.72;28.85;;;13.30;99.90;;;;;;6212829;23;20211;-78
2021/09/23 04:48:01;;;;;;;40.30;28.52;;;13.40;99.90;;;;;;6212373;23;20186;-78
2021/09/23 04:50:36;;;;;;;39.72;27.50;;;13.40;99.90;;;;;;6185652;23;20217;-75
2021/09/23 04:53:03;;;;;;;39.05;27.77;;;13.50;99.90;;;;;;6185224;23;20245;-76
2021/09/23 04:55:31;;;;;;;35.60;28.20;;;13.50;99.90;;;;;;6184837;23;20595;-75
2021/09/23 04:57:59;;;;;;;45.63;29.05;;;13.50;99.90;;;;;;6185695;23;20167;-74
2021/09/23 05:00:26;;;;;;;37.78;28.63;;;13.50;99.90;;;;;;6186698;23;20168;-78
2021/09/23 05:02:53;;;;;;;36.50;27.02;;;13.50;99.90;;;;;;6194314;23;20203;-74
2021/09/23 05:05:22;;;;;;;43.15;28.30;;;13.40;99.90;;;;;;6188541;23;20733;-73
2021/09/23 05:07:49;;;;;;;40.15;28.83;;;13.40;99.90;;;;;;6185394;23;20164;-75
2021/09/23 05:10:18;;;;;;;42.85;29.92;;;13.40;99.90;;;;;;6185608;23;20168;-74
2021/09/23 05:12:45;;;;;;;41.15;29.13;;;13.40;99.90;;;;;;6186068;23;20191;-73
2021/09/23 05:15:13;;;;;;;40.00;29.15;;;13.30;99.90;;;;;;6185868;23;20677;-72
2021/09/23 05:17:40;;;;;;;41.35;29.52;;;13.30;99.90;;;;;;6186596;23;20171;-72
2021/09/23 05:20:09;;;;;;;42.08;29.08;;;13.30;99.90;;;;;;6186825;23;20160;-73
2021/09/23 05:22:38;;;;;;;40.20;29.45;;;13.30;99.90;;;;;;6186521;23;20198;-75
2021/09/23 05:25:06;;;;;;;37.80;28.70;;;13.30;99.90;;;;;;6186522;23;20528;-75
2021/09/23 05:27:33;;;;;;;39.42;28.42;;;13.30;99.90;;;;;;6186704;23;20164;-72
2021/09/23 05:30:01;;;;;;;40.35;28.73;;;13.30;99.90;;;;;;6187186;23;20492;-73
2021/09/23 05:32:28;;;;;;;40.03;29.70;;;13.30;99.90;;;;;;6186656;23;20233;-73
2021/09/23 05:34:55;;;;;;;37.58;28.45;;;13.30;99.90;;;;;;6186655;23;20521;-74
2021/09/23 05:37:22;;;;;;;40.08;29.20;;;13.40;99.90;;;;;;6185914;23;20168;-73
2021/09/23 05:39:51;;;;;;;43.15;28.88;;;13.40;99.90;;;;;;6190907;23;20167;-73
2021/09/23 05:42:18;;;;;;;39.72;28.67;;;13.50;99.90;;;;;;6191521;23;20214;-71
2021/09/23 05:44:45;;;;;;;43.58;30.70;;;13.50;99.90;;;;;;6186256;23;20164;-72
2021/09/23 05:47:13;;;;;;;38.60;28.60;;;13.60;99.90;;;;;;6185866;23;20222;-74
2021/09/23 05:49:40;;;;;;;42.70;29.92;;;13.60;99.90;;;;;;6187164;23;20219;-72
2021/09/23 05:52:08;;;;;;;35.65;27.80;;;13.70;99.90;;;;;;6186219;23;20285;-76
2021/09/23 05:54:36;;;;;;;39.25;27.10;;;13.80;99.90;;;;;;6186084;23;20180;-74
2021/09/23 05:57:04;;;;;;;39.75;27.65;;;13.80;99.90;;;;;;6185572;23;20165;-74
2021/09/23 05:59:32;;;;;;;38.72;28.58;;;13.90;99.90;;;;;;6186392;23;20600;-71
2021/09/23 06:02:00;;;;;;;49.55;30.15;;;13.90;99.90;;;;;;6185687;23;20207;-71
2021/09/23 06:04:27;;;;;;;37.83;28.17;;;14.00;99.90;;;;;;6185084;23;20161;-72
2021/09/23 06:06:54;;;;;;;45.50;30.58;;;14.10;99.90;;;;;;6185349;23;20161;-73
2021/09/23 06:09:22;;;;;;;39.65;28.90;;;14.10;99.90;;;;;;6187041;23;20170;-73
2021/09/23 06:11:49;;;;;;;41.63;30.38;;;14.10;99.90;;;;;;6188638;23;20200;-72
2021/09/23 06:14:18;;;;;;;39.97;29.15;;;14.10;99.90;;;;;;6190727;23;20266;-72
2021/09/23 06:16:45;;;;;;;42.15;29.25;;;14.20;99.90;;;;;;6189749;23;20161;-72
2021/09/23 06:19:12;;;;;;;33.90;27.45;;;14.40;99.90;;;;;;6192577;23;20172;-76
2021/09/23 06:21:40;;;;;;;41.17;29.50;;;14.50;99.90;;;;;;6190808;23;20204;-72
2021/09/23 06:24:08;;;;;;;34.50;26.45;;;14.80;99.90;;;;;;6187505;23;20383;-73
2021/09/23 06:26:37;;;;;;;37.65;26.48;;;15.10;99.90;;;;;;6185191;23;20164;-73
2021/09/23 06:29:04;;;;;;;36.38;27.58;;;15.30;99.90;;;;;;6185176;23;20176;-74
2021/09/23 06:31:35;;;;;;;43.55;28.55;;;15.40;99.90;;;;;;6185221;23;20215;-74
2021/09/23 06:34:02;;;;;;;34.80;27.88;;;15.20;99.90;;;;;;6185572;23;20196;-76
2021/09/23 06:36:33;;;;;;;41.38;27.90;;;15.10;99.90;;;;;;6185269;23;20168;-75
2021/09/23 06:39:00;;;;;;;33.35;25.98;;;15.00;99.90;;;;;;6186560;23;20239;-74
2021/09/23 06:41:27;;;;;;;39.45;27.75;;;15.00;99.90;;;;;;6185640;23;20220;-74
2021/09/23 06:43:55;;;;;;;41.72;30.50;;;14.80;99.90;;;;;;6186214;23;20195;-75
2021/09/23 06:46:23;;;;;;;39.50;28.58;;;14.80;99.90;;;;;;6184975;23;20200;-73
2021/09/23 06:49:05;;;;;;;41.05;30.25;;;14.70;99.90;;;;;;6186140;23;20580;-73
2021/09/23 06:51:32;;;;;;;44.28;30.38;;;14.70;99.90;;;;;;6186455;23;20252;-72
2021/09/23 06:54:02;;;;;;;40.40;30.30;;;14.60;99.90;;;;;;6193897;23;20168;-73
2021/09/23 06:56:29;;;;;;;44.53;30.80;;;14.60;99.90;;;;;;6190147;23;20490;-76
2021/09/23 06:58:56;;;;;;;45.83;32.15;;;14.60;99.90;;;;;;6185991;23;20203;-72
2021/09/23 07:01:23;;;;;;;40.30;30.65;;;14.60;99.90;;;;;;6184607;23;20161;-74
2021/09/23 07:03:50;;;;;;;38.05;29.08;;;14.60;99.90;;;;;;6184691;23;20164;-72
2021/09/23 07:06:19;;;;;;;38.97;30.05;;;14.60;99.90;;;;;;6183737;23;20164;-75
2021/09/23 07:08:46;;;;;;;42.78;31.13;;;14.70;99.90;;;;;;6183883;23;20200;-72
2021/09/23 07:11:13;;;;;;;43.28;30.23;;;14.80;99.90;;;;;;6184890;23;20161;-72
2021/09/23 07:13:41;;;;;;;39.28;29.00;;;14.80;99.90;;;;;;6184996;23;20171;-72
2021/09/23 07:16:09;;;;;;;43.28;30.13;;;14.80;99.90;;;;;;6184617;23;20180;-73
2021/09/23 07:18:37;;;;;;;52.45;30.52;;;14.80;99.90;;;;;;6185013;23;20650;-74
2021/09/23 07:21:05;;;;;;;34.72;27.83;;;14.90;99.90;;;;;;6184890;23;20169;-73
2021/09/23 07:23:35;;;;;;;37.38;29.25;;;15.00;99.90;;;;;;6185453;23;20468;-74
2021/09/23 07:26:02;;;;;;;38.75;30.67;;;15.10;99.90;;;;;;6184432;23;20240;-73
2021/09/23 07:28:30;;;;;;;55.70;30.58;;;15.10;99.90;;;;;;6184890;23;20169;-73
2021/09/23 07:30:58;;;;;;;44.28;32.00;;;15.20;99.90;;;;;;6185117;23;20179;-73
2021/09/23 07:33:26;;;;;;;37.20;29.48;;;15.20;99.90;;;;;;6185608;23;20196;-73
2021/09/23 07:35:54;;;;;;;43.10;30.15;;;15.30;99.90;;;;;;6184439;23;20512;-75
2021/09/23 07:38:22;;;;;;;33.05;26.13;;;15.50;99.90;;;;;;6184952;23;20534;-75
2021/09/23 07:40:50;;;;;;;37.45;28.08;;;15.80;99.90;;;;;;6185022;23;20199;-74
2021/09/23 07:43:18;;;;;;;38.45;26.20;;;16.30;99.90;;;;;;6184441;23;20213;-76
2021/09/23 07:45:45;;;;;;;30.83;24.13;;;17.30;99.90;;;;;;6183882;23;20167;-74
2021/09/23 07:48:12;;;;;;;31.70;23.30;;;18.20;99.90;;;;;;6185731;23;20399;-73
2021/09/23 07:50:39;;;;;;;34.70;26.57;;;19.10;99.90;;;;;;6185215;23;20420;-72
2021/09/23 07:53:06;;;;;;;30.90;25.30;;;19.60;99.90;;;;;;6184355;23;20438;-74
2021/09/23 07:55:33;;;;;;;28.00;22.93;;;20.40;99.90;;;;;;6184038;23;20435;-74
2021/09/23 07:58:02;;;;;;;29.80;25.20;;;20.40;99.90;;;;;;6182846;23;20388;-73
2021/09/23 08:00:29;;;;;;;33.57;25.40;;;20.40;99.90;;;;;;6184708;23;20440;-75
2021/09/23 08:02:56;;;;;;;31.03;24.53;;;20.10;99.90;;;;;;6184720;23;20751;-71
2021/09/23 08:05:28;;;;;;;34.83;24.10;;;20.40;99.90;;;;;;6184350;23;20471;-74
2021/09/23 08:07:55;;;;;;;31.33;23.60;;;20.10;99.90;;;;;;6184823;23;20437;-71
2021/09/23 08:10:23;;;;;;;29.33;22.50;;;20.50;99.90;;;;;;6184713;23;20405;-73
2021/09/23 08:12:50;;;;;;;35.10;24.97;;;20.90;99.90;;;;;;6184453;23;20435;-73
2021/09/23 08:15:19;;;;;;;32.10;23.67;;;20.90;99.90;;;;;;6183335;23;20426;-73
2021/09/23 08:17:46;;;;;;;30.30;23.60;;;21.00;99.90;;;;;;6184603;23;20397;-72
2021/09/23 08:20:14;;;;;;;28.83;23.10;;;20.50;99.90;;;;;;6184021;23;20498;-73
2021/09/23 08:22:41;;;;;;;29.87;24.13;;;20.00;99.90;;;;;;6184360;23;20436;-74
2021/09/23 08:25:10;;;;;;;34.57;26.53;;;19.60;99.90;;;;;;6184152;23;20391;-74
2021/09/23 08:27:37;;;;;;;30.37;24.97;;;19.30;99.90;;;;;;6184807;23;20396;-74
2021/09/23 08:30:05;;;;;;;32.70;25.57;;;19.30;99.90;;;;;;6184558;23;20399;-75
2021/09/23 08:32:34;;;;;;;32.37;23.60;;;19.10;99.90;;;;;;6184338;23;20436;-74
2021/09/23 08:35:05;;;;;;;35.40;26.80;;;19.20;99.90;;;;;;6184014;23;20424;-73
2021/09/23 08:37:33;;;;;;;33.97;26.73;;;19.10;99.90;;;;;;6184969;23;20400;-72
2021/09/23 08:40:00;;;;;;;28.87;25.13;;;19.10;99.90;;;;;;6184629;23;20407;-75
2021/09/23 08:42:28;;;;;;;33.03;26.03;;;18.90;99.90;;;;;;6184825;23;20470;-74
2021/09/23 08:44:56;;;;;;;30.60;24.47;;;18.70;99.90;;;;;;6184626;23;20385;-73
2021/09/23 08:47:23;;;;;;;33.33;25.80;;;18.40;99.90;;;;;;6184774;23;20933;-74
2021/09/23 08:49:53;;;;;;;33.87;26.27;;;18.20;99.90;;;;;;6186168;23;20433;-71
2021/09/23 08:52:20;;;;;;;37.43;26.53;;;18.00;99.90;;;;;;6186372;23;20431;-75
2021/09/23 08:54:47;;;;;;;34.67;26.77;;;17.90;99.90;;;;;;6185773;23;20878;-75
2021/09/23 08:57:15;;;;;;;46.33;26.47;;;17.80;99.90;;;;;;6186224;23;20395;-72
2021/09/23 08:59:42;;;;;;;33.87;24.97;;;17.70;99.90;;;;;;6185887;23;20906;-72
2021/09/23 09:02:22;;;;;;;33.67;26.03;;;17.70;99.90;;;;;;6186085;23;20441;-73
2021/09/23 09:04:54;;;;;;;30.00;24.57;;;17.80;99.90;;;;;;6185748;23;20757;-72
2021/09/23 09:07:25;;;;;;;34.07;27.03;;;17.90;99.90;;;;;;6185751;23;20396;-73
2021/09/23 09:09:53;;;;;;;32.23;23.97;;;17.80;99.90;;;;;;6186374;23;20812;-74
2021/09/23 09:12:21;;;;;;;34.53;26.00;;;17.70;99.90;;;;;;6186090;23;20749;-73
2021/09/23 09:14:49;;;;;;;33.57;23.80;;;17.70;99.90;;;;;;6185978;23;20394;-73
2021/09/23 09:17:19;;;;;;;33.13;26.83;;;17.50;99.90;;;;;;6185180;23;20399;-73
2021/09/23 09:19:48;;;;;;;32.37;24.63;;;17.50;99.90;;;;;;6186187;23;20398;-73
2021/09/23 09:22:20;;;;;;;33.72;24.83;;;17.30;99.90;;;;;;6185127;23;20793;-74
2021/09/23 09:24:51;;;;;;;33.75;24.75;;;17.30;99.90;;;;;;6186445;23;20167;-72
2021/09/23 09:27:33;;;;;;;37.88;26.90;;;17.20;99.90;;;;;;6185887;23;20168;-75
2021/09/23 09:30:03;;;;;;;38.33;24.55;;;17.20;99.90;;;;;;6186574;23;20167;-72
2021/09/23 09:32:42;;;;;;;35.00;26.13;;;17.20;99.90;;;;;;6186163;23;20207;-72
2021/09/23 09:35:12;;;;;;;34.23;26.50;;;17.20;99.90;;;;;;6185481;23;20743;-73
2021/09/23 09:37:45;;;;;;;34.10;23.53;;;17.20;99.90;;;;;;6185614;23;20380;-75
2021/09/23 09:40:17;;;;;;;25.87;21.47;;;17.10;99.90;;;;;;6185942;23;20700;-76
2021/09/23 09:42:46;;;;;;;29.45;21.17;;;17.20;99.90;;;;;;6186086;23;20437;-71
2021/09/23 09:45:21;;;;;;;24.40;18.77;;;17.20;99.90;;;;;;6186077;23;20161;-73
2021/09/23 09:47:53;;;;;;;23.07;18.97;;;17.30;99.90;;;;;;6186497;23;20395;-72
2021/09/23 09:50:25;;;;;;;26.83;18.90;;;17.30;99.90;;;;;;6186229;23;20419;-73
2021/09/23 09:52:58;;;;;;;22.13;17.77;;;17.50;99.90;;;;;;6185494;23;20435;-73
2021/09/23 09:55:27;;;;;;;23.00;19.10;;;17.50;99.90;;;;;;6186114;23;20828;-74
2021/09/23 09:57:54;;;;;;;26.20;18.73;;;17.70;99.90;;;;;;6189606;23;20449;-72
2021/09/23 10:00:23;;;;;;;24.83;18.20;;;18.00;99.90;;;;;;6189496;23;20483;-74
2021/09/23 10:02:50;;;;;;;21.87;17.77;;;18.20;99.90;;;;;;6191914;23;20453;-72
2021/09/23 10:05:19;;;;;;;18.27;15.20;;;18.30;99.90;;;;;;6191260;23;20392;-73
2021/09/23 10:07:51;;;;;;;24.63;12.70;;;18.30;99.90;;;;;;6193222;23;20403;-74
2021/09/23 10:10:21;;;;;;;17.83;13.33;;;18.30;99.90;;;;;;6191285;23;20404;-73
2021/09/23 10:12:57;;;;;;;18.93;13.93;;;18.50;99.90;;;;;;6186060;23;20455;-75
2021/09/23 10:15:25;;;;;;;17.30;12.70;;;18.90;99.90;;;;;;6185338;23;20437;-75
2021/09/23 10:17:54;;;;;;;19.30;13.57;;;19.20;99.90;;;;;;6185746;23;20395;-72
2021/09/23 10:20:24;;;;;;;17.37;13.07;;;19.40;99.90;;;;;;6186008;23;20479;-74
2021/09/23 10:22:53;;;;;;;18.10;12.30;;;19.40;99.90;;;;;;6185365;23;20438;-74
2021/09/23 10:25:24;;;;;;;15.20;12.03;;;19.40;99.90;;;;;;6185200;23;20403;-74
2021/09/23 10:27:59;;;;;;;14.30;11.97;;;19.50;99.90;;;;;;6185124;23;20399;-74
2021/09/23 10:30:28;;;;;;;14.53;11.87;;;19.50;99.90;;;;;;6185192;23;20406;-73
2021/09/23 10:32:57;;;;;;;15.53;10.90;;;19.60;99.90;;;;;;6184869;23;20428;-73
2021/09/23 10:35:24;;;;;;;13.03;11.60;;;20.10;99.90;;;;;;6185147;23;20442;-76
2021/09/23 10:37:54;;;;;;;15.20;10.40;;;20.10;99.90;;;;;;6185138;23;20728;-74
2021/09/23 10:40:23;;;;;;;16.70;11.53;;;20.20;99.90;;;;;;6185225;23;20399;-77
2021/09/23 10:42:52;;;;;;;18.40;12.83;;;20.30;99.90;;;;;;6185233;23;20428;-74
2021/09/23 10:45:25;;;;;;;17.20;12.83;;;20.20;99.90;;;;;;6185138;23;20473;-74
2021/09/23 10:47:55;;;;;;;18.73;12.10;;;19.90;99.90;;;;;;6185515;23;20449;-70
2021/09/23 10:50:26;;;;;;;19.20;13.00;;;20.00;99.90;;;;;;6185110;23;20504;-74
2021/09/23 10:52:55;;;;;;;18.00;12.43;;;19.70;99.90;;;;;;6184943;23;20436;-73
2021/09/23 10:55:25;;;;;;;15.07;11.90;;;19.50;99.90;;;;;;6185459;23;20499;-72
2021/09/23 10:57:53;;;;;;;15.00;12.87;;;19.40;99.90;;;;;;6185538;23;20395;-73
2021/09/23 11:00:25;;;;;;;16.67;12.17;;;19.10;99.90;;;;;;6186532;23;20388;-73
2021/09/23 11:02:52;;;;;;;16.33;13.70;;;19.00;99.90;;;;;;6188172;23;20510;-72
2021/09/23 11:05:21;;;;;;;15.00;11.87;;;18.70;99.90;;;;;;6186415;23;20423;-72
2021/09/23 11:07:50;;;;;;;18.60;12.37;;;18.60;99.90;;;;;;6187580;23;20403;-74
2021/09/23 11:10:19;;;;;;;13.10;11.10;;;18.70;99.90;;;;;;6185604;23;20392;-73
2021/09/23 11:12:49;;;;;;;17.77;13.57;;;18.50;99.90;;;;;;6185423;23;20514;-74
2021/09/23 11:15:19;;;;;;;14.70;11.90;;;18.60;99.90;;;;;;6184239;23;20478;-73
2021/09/23 11:17:47;;;;;;;24.63;14.00;;;18.50;99.90;;;;;;6185015;23;20459;-74
2021/09/23 11:20:18;;;;;;;14.10;12.27;;;18.60;99.90;;;;;;6185047;23;20396;-74
2021/09/23 11:22:52;;;;;;;19.33;14.50;;;18.60;99.90;;;;;;6184405;23;20450;-76
2021/09/23 11:25:22;;;;;;;16.20;13.43;;;18.70;99.90;;;;;;6185091;23;20770;-77
2021/09/23 11:27:52;;;;;;;21.37;12.43;;;18.80;99.90;;;;;;6186104;23;20396;-73
2021/09/23 11:30:21;;;;;;;19.23;14.20;;;19.20;99.90;;;;;;6185195;23;20466;-76
2021/09/23 11:32:51;;;;;;;17.13;11.90;;;19.20;99.90;;;;;;6184827;23;20467;-73
2021/09/23 11:35:20;;;;;;;15.17;12.70;;;19.30;99.90;;;;;;6184699;23;20396;-75
2021/09/23 11:37:48;;;;;;;19.37;12.93;;;19.10;99.90;;;;;;6187519;23;20767;-73
2021/09/23 11:40:21;;;;;;;16.47;12.87;;;19.10;99.90;;;;;;6185260;23;20407;-74
2021/09/23 11:42:50;;;;;;;18.33;13.30;;;19.10;99.90;;;;;;6185058;23;20436;-75
2021/09/23 11:45:20;;;;;;;15.87;13.00;;;18.90;99.90;;;;;;6184308;23;20397;-73
2021/09/23 11:47:52;;;;;;;18.97;12.10;;;18.90;99.90;;;;;;6184631;23;20396;-72
2021/09/23 11:50:31;;;;;;;12.50;11.20;;;18.90;99.90;;;;;;6185202;23;20416;-75
2021/09/23 11:53:02;;;;;;;19.90;12.50;;;18.80;99.90;;;;;;6183526;23;20433;-76
2021/09/23 11:55:30;;;;;;;14.50;11.53;;;18.60;99.90;;;;;;6183771;23;20475;-74
2021/09/23 11:58:09;;;;;;;14.47;12.10;;;18.50;99.90;;;;;;6184466;23;20482;-76
2021/09/23 12:00:41;;;;;;;14.77;11.67;;;18.60;99.90;;;;;;6185345;23;20503;-72
2021/09/23 12:03:09;;;;;;;15.97;11.33;;;18.60;99.90;;;;;;6184627;23;20435;-74
2021/09/23 12:05:37;;;;;;;17.60;11.53;;;18.60;99.90;;;;;;6184583;23;20399;-72
2021/09/23 12:08:13;;;;;;;16.43;12.53;;;18.50;99.90;;;;;;6185565;23;20395;-73
2021/09/23 12:11:02;;;;;;;16.00;11.63;;;18.60;99.90;;;;;;6186210;23;20415;-76
2021/09/23 12:13:36;;;;;;;13.60;11.40;;;18.50;99.90;;;;;;6176953;23;20432;-73
2021/09/23 12:16:05;;;;;;;16.73;11.00;;;18.60;99.90;;;;;;6186955;23;20428;-74
2021/09/23 12:18:32;;;;;;;13.40;10.93;;;18.50;99.90;;;;;;6189158;23;20415;-72
2021/09/23 12:21:02;;;;;;;12.33;10.83;;;18.50;99.90;;;;;;6190653;23;20408;-73
2021/09/23 12:23:37;;;;;;;13.60;11.33;;;18.50;99.90;;;;;;6188988;23;20431;-72
2021/09/23 12:26:16;;;;;;;13.83;11.23;;;18.50;99.90;;;;;;6192788;23;20387;-72
2021/09/23 12:28:55;;;;;;;14.10;10.83;;;18.50;99.90;;;;;;6189915;23;20471;-75
2021/09/23 12:31:32;;;;;;;12.23;10.93;;;18.40;99.90;;;;;;6192592;23;20755;-71
2021/09/23 12:34:03;;;;;;;16.37;11.27;;;18.30;99.90;;;;;;6193221;23;20466;-72
2021/09/23 12:36:33;;;;;;;13.80;11.00;;;18.30;99.90;;;;;;6191774;23;20427;-73